createdAt,value
2022-11-01T00:01:49.349Z,12.30
2022-11-01T00:04:21.566Z,12.90
2022-11-01T00:07:00.550Z,12.63
2022-11-01T00:09:30.745Z,12.03
2022-11-01T00:12:00.931Z,11.10
2022-11-01T00:14:30.568Z,15.63
2022-11-01T00:16:58.999Z,11.93
2022-11-01T00:19:30.275Z,11.90
2022-11-01T00:22:00.872Z,11.97
2022-11-01T00:24:38.655Z,12.37
2022-11-01T00:27:09.687Z,11.43
2022-11-01T00:29:39.932Z,11.33
2022-11-01T00:34:53.232Z,12.57
2022-11-01T00:40:10.305Z,13.73
2022-11-01T00:42:39.692Z,14.07
2022-11-01T00:45:18.289Z,14.07
2022-11-01T00:47:50.714Z,12.63
2022-11-01T00:50:17.998Z,12.87
2022-11-01T00:52:55.051Z,11.73
2022-11-01T00:55:25.723Z,11.03
2022-11-01T00:57:55.356Z,10.97
2022-11-01T01:00:23.589Z,10.93
2022-11-01T01:02:50.996Z,12.70
2022-11-01T01:05:22.027Z,12.03
2022-11-01T01:07:53.046Z,12.20
2022-11-01T01:10:28.821Z,12.60
2022-11-01T01:12:58.384Z,13.63
2022-11-01T01:15:35.916Z,12.97
2022-11-01T01:18:04.505Z,11.40
2022-11-01T01:20:36.412Z,11.47
2022-11-01T01:25:47.188Z,11.57
2022-11-01T01:28:17.738Z,12.07
2022-11-01T01:30:47.860Z,13.77
2022-11-01T01:33:18.871Z,14.40
2022-11-01T01:35:55.901Z,13.70
2022-11-01T01:38:28.425Z,13.43
2022-11-01T01:41:26.733Z,12.27
2022-11-01T01:43:59.001Z,11.17
2022-11-01T01:46:28.262Z,11.10
2022-11-01T01:48:59.597Z,12.17
2022-11-01T01:51:32.022Z,10.30
2022-11-01T01:54:03.772Z,11.20
2022-11-01T01:56:45.955Z,10.47
2022-11-01T01:59:16.595Z,10.50
2022-11-01T02:01:47.392Z,10.23
2022-11-01T02:04:30.225Z,10.23
2022-11-01T02:07:07.024Z,9.70
2022-11-01T02:09:36.366Z,10.53
2022-11-01T02:12:16.267Z,9.77
2022-11-01T02:15:13.894Z,10.73
2022-11-01T02:18:02.564Z,9.63
2022-11-01T02:20:54.694Z,9.67
2022-11-01T02:23:48.323Z,10.10
2022-11-01T02:27:20.328Z,10.20
2022-11-01T02:30:09.067Z,10.30
2022-11-01T02:33:17.122Z,9.30
2022-11-01T02:36:16.493Z,9.53
2022-11-01T02:38:55.743Z,9.57
2022-11-01T02:41:41.727Z,10.63
2022-11-01T02:47:16.549Z,10.17
2022-11-01T02:49:52.719Z,11.50
2022-11-01T02:52:24.736Z,9.97
2022-11-01T02:54:57.879Z,11.30
2022-11-01T02:57:41.920Z,10.63
2022-11-01T03:00:43.433Z,10.73
2022-11-01T03:03:35.425Z,9.83
2022-11-01T03:06:42.530Z,10.87
2022-11-01T03:12:33.317Z,11.07
2022-11-01T03:15:21.987Z,10.70
2022-11-01T03:17:55.935Z,9.83
2022-11-01T03:20:47.885Z,10.97
2022-11-01T03:23:41.344Z,11.40
2022-11-01T03:26:14.063Z,10.37
2022-11-01T03:28:45.681Z,10.60
2022-11-01T03:31:26.405Z,10.37
2022-11-01T03:34:08.944Z,9.63
2022-11-01T03:36:42.716Z,10.80
2022-11-01T03:39:24.206Z,9.73
2022-11-01T03:42:17.767Z,12.67
2022-11-01T03:44:52.051Z,10.67
2022-11-01T03:50:25.936Z,10.10
2022-11-01T03:53:02.524Z,11.03
2022-11-01T03:55:32.514Z,10.03
2022-11-01T03:58:03.626Z,10.77
2022-11-01T04:00:38.711Z,11.40
2022-11-01T04:03:12.672Z,10.87
2022-11-01T04:05:43.554Z,11.03
2022-11-01T04:13:39.409Z,10.70
2022-11-01T04:16:30.409Z,10.20
2022-11-01T04:19:20.423Z,9.97
2022-11-01T04:24:40.376Z,10.03
2022-11-01T04:29:51.176Z,10.30
2022-11-01T04:32:19.626Z,11.07
2022-11-01T04:34:49.587Z,12.53
2022-11-01T04:37:21.213Z,11.40
2022-11-01T04:39:50.507Z,11.50
2022-11-01T04:42:21.153Z,11.13
2022-11-01T04:44:50.509Z,12.17
2022-11-01T04:47:22.590Z,11.83
2022-11-01T04:49:51.160Z,11.37
2022-11-01T04:52:23.666Z,12.70
2022-11-01T04:54:51.120Z,13.40
2022-11-01T04:57:26.470Z,14.53
2022-11-01T04:59:55.849Z,12.87
2022-11-01T05:02:23.893Z,14.30
2022-11-01T05:04:50.917Z,13.63
2022-11-01T05:07:21.985Z,13.07
2022-11-01T05:12:34.462Z,14.00
2022-11-01T05:17:46.072Z,14.47
2022-11-01T05:23:01.836Z,14.03
2022-11-01T05:28:43.855Z,15.40
2022-11-01T05:31:14.137Z,13.43
2022-11-01T05:33:41.070Z,15.03
2022-11-01T05:36:11.516Z,13.23
2022-11-01T05:38:41.272Z,16.20
2022-11-01T05:43:48.223Z,12.87
2022-11-01T05:46:17.903Z,14.57
2022-11-01T05:48:47.522Z,14.70
2022-11-01T05:51:18.995Z,15.27
2022-11-01T05:53:49.823Z,15.30
2022-11-01T05:56:18.407Z,14.23
2022-11-01T05:58:49.311Z,14.23
2022-11-01T06:01:18.598Z,14.17
2022-11-01T06:03:50.649Z,13.10
2022-11-01T06:06:20.792Z,12.57
2022-11-01T06:08:50.376Z,14.10
2022-11-01T06:11:20.840Z,13.43
2022-11-01T06:13:49.944Z,12.97
2022-11-01T06:16:20.488Z,12.83
2022-11-01T06:18:51.577Z,14.33
2022-11-01T06:21:30.316Z,12.93
2022-11-01T06:23:58.957Z,14.07
2022-11-01T06:29:13.642Z,12.00
2022-11-01T06:31:44.532Z,12.27
2022-11-01T06:34:21.577Z,12.37
2022-11-01T06:36:52.041Z,13.17
2022-11-01T06:39:28.425Z,12.50
2022-11-01T06:41:59.347Z,13.77
2022-11-01T06:44:37.372Z,15.10
2022-11-01T06:47:07.894Z,12.57
2022-11-01T06:49:44.828Z,13.60
2022-11-01T06:52:12.778Z,15.13
2022-11-01T06:54:43.109Z,14.60
2022-11-01T06:57:11.652Z,13.97
2022-11-01T06:59:42.370Z,14.83
2022-11-01T07:02:14.757Z,14.23
2022-11-01T07:04:55.082Z,15.33
2022-11-01T07:07:22.112Z,18.53
2022-11-01T07:09:50.668Z,16.90
2022-11-01T07:12:20.622Z,15.97
2022-11-01T07:14:51.164Z,17.10
2022-11-01T07:17:22.362Z,17.27
2022-11-01T07:22:36.238Z,14.40
2022-11-01T07:25:05.951Z,14.97
2022-11-01T07:27:35.827Z,16.10
2022-11-01T07:32:49.720Z,15.63
2022-11-01T07:35:20.250Z,15.97
2022-11-01T07:37:47.928Z,14.00
2022-11-01T07:40:18.808Z,15.23
2022-11-01T07:42:50.353Z,13.90
2022-11-01T07:45:30.973Z,13.70
2022-11-01T07:48:20.083Z,17.70
2022-11-01T07:50:50.766Z,16.47
2022-11-01T07:53:21.487Z,13.93
2022-11-01T07:55:52.493Z,14.50
2022-11-01T07:58:22.577Z,15.97
2022-11-01T08:00:55.077Z,18.60
2022-11-01T08:03:24.962Z,17.20
2022-11-01T08:05:57.007Z,15.97
2022-11-01T08:13:53.415Z,17.00
2022-11-01T08:19:04.162Z,16.17
2022-11-01T08:21:32.295Z,17.90
2022-11-01T08:24:02.548Z,15.00
2022-11-01T08:26:33.139Z,15.20
2022-11-01T08:29:03.469Z,14.93
2022-11-01T08:31:37.260Z,14.73
2022-11-01T08:34:07.642Z,14.80
2022-11-01T08:36:35.606Z,15.00
2022-11-01T08:39:10.783Z,17.00
2022-11-01T08:44:24.493Z,15.07
2022-11-01T08:46:55.547Z,14.97
2022-11-01T08:49:24.983Z,13.90
2022-11-01T08:51:58.171Z,14.87
2022-11-01T08:57:14.063Z,13.07
2022-11-01T09:02:28.266Z,13.40
2022-11-01T09:07:38.460Z,15.07
2022-11-01T09:10:09.533Z,13.60
2022-11-01T09:15:11.138Z,13.50
2022-11-01T09:17:38.159Z,14.17
2022-11-01T09:20:08.920Z,13.67
2022-11-01T09:22:40.233Z,14.60
2022-11-01T09:32:12.230Z,13.40
2022-11-01T09:34:39.947Z,17.80
2022-11-01T09:37:10.776Z,16.03
2022-11-01T09:39:37.927Z,20.30
2022-11-01T09:42:28.869Z,13.17
2022-11-01T09:45:06.443Z,12.77
2022-11-01T09:47:36.707Z,11.03
2022-11-01T09:50:27.873Z,12.23
2022-11-01T09:52:56.933Z,10.00
2022-11-01T09:55:42.644Z,9.90
2022-11-01T09:58:42.197Z,8.70
2022-11-01T10:01:41.458Z,9.10
2022-11-01T10:04:41.110Z,9.77
2022-11-01T10:07:46.899Z,9.40
2022-11-01T10:10:50.934Z,9.20
2022-11-01T10:13:58.470Z,9.57
2022-11-01T10:16:37.446Z,9.20
2022-11-01T10:22:01.532Z,11.90
2022-11-01T10:24:43.825Z,10.33
2022-11-01T10:27:27.328Z,11.10
2022-11-01T10:30:15.944Z,8.67
2022-11-01T10:32:57.349Z,8.60
2022-11-01T10:35:40.676Z,10.87
2022-11-01T10:39:29.914Z,9.60
2022-11-01T10:41:43.599Z,10.37
2022-11-01T10:44:36.976Z,9.83
2022-11-01T10:47:12.304Z,8.80
2022-11-01T10:50:04.682Z,9.17
2022-11-01T10:52:58.344Z,7.70
2022-11-01T10:55:53.206Z,7.90
2022-11-01T10:58:42.597Z,7.67
2022-11-01T11:01:20.246Z,7.50
2022-11-01T11:03:49.547Z,6.60
2022-11-01T11:06:20.079Z,6.90
2022-11-01T11:08:51.653Z,5.70
2022-11-01T11:11:26.715Z,5.37
2022-11-01T11:13:57.186Z,5.13
2022-11-01T11:16:52.482Z,6.17
2022-11-01T11:19:39.530Z,4.63
2022-11-01T11:22:09.117Z,5.10
2022-11-01T11:24:44.089Z,5.00
2022-11-01T11:27:28.552Z,7.27
2022-11-01T11:30:07.601Z,5.50
2022-11-01T11:32:39.005Z,5.20
2022-11-01T11:35:19.834Z,5.47
2022-11-01T11:37:58.076Z,5.20
2022-11-01T11:40:46.753Z,5.33
2022-11-01T11:43:36.864Z,5.77
2022-11-01T11:46:32.050Z,5.63
2022-11-01T11:49:04.790Z,5.60
2022-11-01T11:51:40.734Z,6.37
2022-11-01T11:54:32.710Z,7.73
2022-11-01T11:57:32.412Z,6.60
2022-11-01T12:00:05.839Z,6.60
2022-11-01T12:02:43.033Z,7.37
2022-11-01T12:05:20.001Z,8.53
2022-11-01T12:07:52.912Z,7.47
2022-11-01T12:10:47.228Z,7.47
2022-11-01T12:13:58.425Z,8.40
2022-11-01T12:19:04.403Z,7.57
2022-11-01T12:21:42.396Z,7.03
2022-11-01T12:24:47.579Z,7.37
2022-11-01T12:27:25.368Z,7.43
2022-11-01T12:30:05.347Z,8.60
2022-11-01T12:32:45.724Z,8.87
2022-11-01T12:35:43.963Z,10.57
2022-11-01T12:38:55.449Z,7.27
2022-11-01T12:41:57.740Z,6.90
2022-11-01T12:44:45.641Z,6.83
2022-11-01T12:47:52.702Z,8.40
2022-11-01T12:50:48.367Z,8.30
2022-11-01T12:53:33.522Z,8.40
2022-11-01T12:56:01.065Z,8.90
2022-11-01T12:58:33.707Z,8.83
2022-11-01T13:01:28.252Z,9.37
2022-11-01T13:03:55.670Z,9.80
2022-11-01T13:06:43.944Z,10.63
2022-11-01T13:09:14.162Z,8.13
2022-11-01T13:12:32.782Z,8.50
2022-11-01T13:15:30.911Z,8.40
2022-11-01T13:18:28.398Z,7.90
2022-11-01T13:21:31.205Z,7.80
2022-11-01T13:24:43.977Z,7.73
2022-11-01T13:27:21.559Z,8.77
2022-11-01T13:30:14.091Z,9.57
2022-11-01T13:33:24.743Z,8.87
2022-11-01T13:36:31.228Z,8.80
2022-11-01T13:39:20.835Z,8.13
2022-11-01T13:41:57.515Z,9.60
2022-11-01T13:44:31.629Z,8.83
2022-11-01T13:47:13.145Z,9.63
2022-11-01T13:50:21.490Z,9.13
2022-11-01T13:53:09.492Z,8.60
2022-11-01T13:56:15.629Z,8.90
2022-11-01T13:58:52.073Z,11.03
2022-11-01T14:01:42.791Z,10.50
2022-11-01T14:04:24.649Z,10.47
2022-11-01T14:07:14.981Z,10.10
2022-11-01T14:09:55.413Z,10.00
2022-11-01T14:13:11.320Z,10.60
2022-11-01T14:16:02.027Z,25.13
2022-11-01T14:19:28.467Z,18.93
2022-11-01T14:21:57.756Z,11.63
2022-11-01T14:24:35.556Z,13.33
2022-11-01T14:27:20.514Z,13.13
2022-11-01T14:29:53.077Z,13.40
2022-11-01T14:32:24.230Z,14.93
2022-11-01T14:35:17.633Z,12.80
2022-11-01T14:37:52.734Z,11.00
2022-11-01T14:40:50.351Z,10.93
2022-11-01T14:43:43.299Z,9.80
2022-11-01T14:46:20.515Z,9.50
2022-11-01T14:49:08.434Z,10.17
2022-11-01T14:51:54.604Z,11.13
2022-11-01T14:54:37.381Z,11.07
2022-11-01T14:57:39.684Z,10.43
2022-11-01T15:00:33.902Z,10.17
2022-11-01T15:03:03.579Z,9.53
2022-11-01T15:05:33.561Z,9.47
2022-11-01T15:08:02.412Z,11.43
2022-11-01T15:10:41.517Z,11.60
2022-11-01T15:13:12.968Z,11.47
2022-11-01T15:15:40.233Z,11.23
2022-11-01T15:18:23.259Z,11.47
2022-11-01T15:20:55.252Z,10.97
2022-11-01T15:23:38.094Z,10.57
2022-11-01T15:26:14.554Z,10.50
2022-11-01T15:28:54.773Z,12.33
2022-11-01T15:31:22.871Z,12.83
2022-11-01T15:33:57.370Z,13.60
2022-11-01T15:36:37.113Z,12.80
2022-11-01T15:39:24.402Z,13.67
2022-11-01T15:41:55.196Z,11.23
2022-11-01T15:44:33.026Z,11.13
2022-11-01T15:47:03.969Z,11.13
2022-11-01T15:49:42.669Z,11.50
2022-11-01T15:52:22.339Z,11.43
2022-11-01T15:55:11.926Z,11.80
2022-11-01T15:58:13.626Z,12.40
2022-11-01T16:01:02.177Z,12.47
2022-11-01T16:04:03.609Z,13.30
2022-11-01T16:06:48.764Z,12.73
2022-11-01T16:09:46.945Z,11.97
2022-11-01T16:12:20.159Z,12.90
2022-11-01T16:15:04.827Z,12.70
2022-11-01T16:17:37.600Z,12.77
2022-11-01T16:20:49.465Z,12.70
2022-11-01T16:23:28.901Z,11.43
2022-11-01T16:26:08.622Z,12.77
2022-11-01T16:28:48.854Z,12.80
2022-11-01T16:31:33.369Z,13.37
2022-11-01T16:34:03.407Z,12.67
2022-11-01T16:36:57.621Z,15.43
2022-11-01T16:39:33.657Z,13.53
2022-11-01T16:42:00.956Z,13.83
2022-11-01T16:44:28.539Z,14.70
2022-11-01T16:46:56.144Z,22.53
2022-11-01T16:49:26.755Z,22.73
2022-11-01T16:52:04.839Z,22.67
2022-11-01T16:54:37.289Z,22.23
2022-11-01T16:57:18.444Z,17.17
2022-11-01T16:59:49.496Z,16.47
2022-11-01T17:02:24.045Z,16.90
2022-11-01T17:05:16.710Z,16.27
2022-11-01T17:07:47.426Z,14.30
2022-11-01T17:10:19.694Z,17.00
2022-11-01T17:12:48.358Z,15.23
2022-11-01T17:15:20.295Z,14.50
2022-11-01T17:17:49.415Z,15.47
2022-11-01T17:20:27.393Z,16.80
2022-11-01T17:22:58.920Z,19.70
2022-11-01T17:25:33.895Z,24.73
2022-11-01T17:28:04.170Z,38.40
2022-11-01T17:30:35.222Z,38.93
2022-11-01T17:33:13.185Z,35.30
2022-11-01T17:35:43.273Z,32.87
2022-11-01T17:38:20.790Z,34.10
2022-11-01T17:40:51.590Z,38.23
2022-11-01T17:43:19.370Z,55.57
2022-11-01T17:45:50.620Z,42.03
2022-11-01T17:48:20.719Z,37.67
2022-11-01T17:50:49.702Z,31.33
2022-11-01T17:53:19.129Z,29.47
2022-11-01T17:55:58.779Z,25.63
2022-11-01T17:58:26.582Z,22.40
2022-11-01T18:00:56.506Z,21.47
2022-11-01T18:03:24.589Z,21.93
2022-11-01T18:05:58.875Z,22.07
2022-11-01T18:08:30.953Z,24.23
2022-11-01T18:11:25.814Z,21.37
2022-11-01T18:14:17.803Z,24.00
2022-11-01T18:17:26.248Z,22.90
2022-11-01T18:20:12.047Z,21.87
2022-11-01T18:23:06.090Z,19.73
2022-11-01T18:25:50.138Z,19.60
2022-11-01T18:28:26.751Z,19.00
2022-11-01T18:31:01.992Z,20.17
2022-11-01T18:33:57.132Z,19.10
2022-11-01T18:37:16.540Z,20.10
2022-11-01T18:39:58.785Z,19.67
2022-11-01T18:42:26.908Z,19.57
2022-11-01T18:45:17.143Z,18.27
2022-11-01T18:48:02.007Z,17.47
2022-11-01T18:50:31.569Z,18.97
2022-11-01T18:53:15.278Z,19.43
2022-11-01T18:55:50.284Z,19.57
2022-11-01T18:58:40.325Z,20.30
2022-11-01T19:01:18.802Z,21.57
2022-11-01T19:04:13.141Z,36.80
2022-11-01T19:06:48.482Z,34.63
2022-11-01T19:09:32.356Z,35.70
2022-11-01T19:12:08.530Z,34.57
2022-11-01T19:14:40.323Z,29.80
2022-11-01T19:20:46.925Z,33.43
2022-11-01T19:23:35.534Z,29.03
2022-11-01T19:26:17.405Z,27.63
2022-11-01T19:28:52.047Z,26.40
2022-11-01T19:31:43.954Z,22.77
2022-11-01T19:34:40.190Z,23.67
2022-11-01T19:37:31.612Z,21.37
2022-11-01T19:40:06.214Z,21.77
2022-11-01T19:42:38.831Z,19.50
2022-11-01T19:45:30.299Z,19.53
2022-11-01T19:48:21.323Z,18.57
2022-11-01T19:51:02.503Z,20.00
2022-11-01T19:53:43.565Z,19.27
2022-11-01T19:56:15.014Z,19.63
2022-11-01T19:58:51.885Z,19.23
2022-11-01T20:01:47.072Z,18.77
2022-11-01T20:04:47.681Z,19.77
2022-11-01T20:07:32.351Z,20.00
2022-11-01T20:12:50.975Z,21.13
2022-11-01T20:15:24.767Z,20.43
2022-11-01T20:17:54.423Z,19.23
2022-11-01T20:20:27.658Z,20.30
2022-11-01T20:25:37.558Z,24.80
2022-11-01T20:28:18.185Z,26.00
2022-11-01T20:31:11.507Z,33.13
2022-11-01T20:33:42.325Z,31.30
2022-11-01T20:36:12.091Z,26.50
2022-11-01T20:38:45.230Z,24.80
2022-11-01T20:41:14.606Z,25.13
2022-11-01T20:43:45.677Z,23.70
2022-11-01T20:46:13.754Z,19.20
2022-11-01T20:48:42.661Z,20.27
2022-11-01T20:51:16.056Z,20.30
2022-11-01T20:59:14.721Z,18.27
2022-11-01T21:01:50.214Z,18.33
2022-11-01T21:04:21.710Z,22.17
2022-11-01T21:06:50.259Z,21.83
2022-11-01T21:09:55.588Z,23.73
2022-11-01T21:12:46.029Z,22.20
2022-11-01T21:15:52.338Z,21.60
2022-11-01T21:18:37.227Z,24.40
2022-11-01T21:21:23.815Z,21.60
2022-11-01T21:23:53.753Z,21.70
2022-11-01T21:26:31.526Z,21.40
2022-11-01T21:29:29.825Z,22.47
2022-11-01T21:31:59.770Z,21.13
2022-11-01T21:34:33.836Z,21.50
2022-11-01T21:37:04.580Z,20.90
2022-11-01T21:42:38.185Z,22.67
2022-11-01T21:45:32.583Z,23.10
2022-11-01T21:48:22.248Z,21.63
2022-11-01T21:50:50.702Z,21.93
2022-11-01T21:53:21.463Z,21.50
2022-11-01T21:55:53.108Z,21.70
2022-11-01T21:58:23.277Z,21.50
2022-11-01T22:03:34.112Z,21.40
2022-11-01T22:06:02.753Z,19.63
2022-11-01T22:08:36.496Z,21.57
2022-11-01T22:11:05.543Z,19.90
2022-11-01T22:13:38.627Z,21.47
2022-11-01T22:18:53.575Z,20.93
2022-11-01T22:21:30.831Z,21.33
2022-11-01T22:24:00.368Z,20.73
2022-11-01T22:26:30.678Z,21.37
2022-11-01T22:29:02.369Z,20.40
2022-11-01T22:31:39.993Z,20.33
2022-11-01T22:34:18.748Z,20.50
2022-11-01T22:36:48.497Z,20.73
2022-11-01T22:39:21.438Z,22.37
2022-11-01T22:44:34.755Z,21.07
2022-11-01T22:47:16.898Z,22.23
2022-11-01T22:50:03.936Z,20.00
2022-11-01T22:52:45.732Z,24.80
2022-11-01T22:55:14.099Z,19.37
2022-11-01T22:58:05.547Z,19.27
2022-11-01T23:00:40.849Z,19.10
2022-11-01T23:03:58.860Z,20.20
2022-11-01T23:06:30.985Z,19.77
2022-11-01T23:09:07.296Z,21.40
2022-11-01T23:11:59.779Z,19.80
2022-11-01T23:14:51.745Z,20.37
2022-11-01T23:17:27.855Z,19.10
2022-11-01T23:20:05.764Z,20.43
2022-11-01T23:22:37.132Z,22.23
2022-11-01T23:27:47.389Z,23.27
2022-11-01T23:30:17.986Z,20.00
2022-11-01T23:32:47.594Z,22.50
2022-11-01T23:35:24.697Z,24.70
2022-11-01T23:37:56.826Z,26.20
2022-11-01T23:40:36.945Z,21.60
2022-11-01T23:43:28.500Z,22.33
2022-11-01T23:45:57.460Z,22.70
2022-11-01T23:51:12.262Z,22.73
2022-11-01T23:53:49.793Z,23.60
2022-11-01T23:56:19.766Z,23.23
2022-11-01T23:59:02.756Z,24.63
